createdAt,value
2018-08-03T00:01:11.375Z,14.10
2018-08-03T00:03:39.855Z,14.13
2018-08-03T00:06:08.340Z,15.40
2018-08-03T00:08:36.710Z,15.13
2018-08-03T00:11:05.208Z,14.97
2018-08-03T00:13:33.679Z,14.03
2018-08-03T00:16:02.137Z,14.57
2018-08-03T00:18:30.518Z,15.20
2018-08-03T00:20:59.015Z,15.43
2018-08-03T00:23:27.475Z,13.50
2018-08-03T00:25:55.941Z,14.40
2018-08-03T00:28:24.381Z,15.07
2018-08-03T00:30:52.791Z,14.60
2018-08-03T00:33:20.908Z,15.40
2018-08-03T00:35:49.320Z,14.67
2018-08-03T00:38:17.793Z,15.67
2018-08-03T00:40:46.227Z,14.43
2018-08-03T00:43:14.633Z,14.40
2018-08-03T00:45:42.981Z,15.50
2018-08-03T00:48:11.400Z,14.30
2018-08-03T00:50:39.859Z,14.60
2018-08-03T00:53:08.553Z,14.70
2018-08-03T00:55:36.959Z,14.20
2018-08-03T00:58:05.503Z,14.10
2018-08-03T01:00:33.923Z,14.60
2018-08-03T01:03:02.418Z,16.93
2018-08-03T01:05:30.946Z,15.60
2018-08-03T01:07:59.553Z,15.17
2018-08-03T01:10:28.103Z,15.17
2018-08-03T01:12:56.551Z,15.80
2018-08-03T01:15:24.924Z,16.37
2018-08-03T01:17:53.417Z,16.60
2018-08-03T01:20:21.829Z,16.10
2018-08-03T01:22:50.870Z,16.27
2018-08-03T01:25:19.308Z,15.27
2018-08-03T01:27:47.785Z,16.70
2018-08-03T01:30:16.252Z,15.80
2018-08-03T01:32:44.712Z,15.30
2018-08-03T01:35:13.195Z,17.47
2018-08-03T01:37:41.545Z,17.00
2018-08-03T01:40:09.948Z,17.90
2018-08-03T01:42:38.489Z,16.67
2018-08-03T01:45:06.805Z,18.13
2018-08-03T01:47:35.181Z,16.67
2018-08-03T01:50:03.763Z,17.20
2018-08-03T01:52:32.347Z,15.87
2018-08-03T01:55:00.887Z,17.93
2018-08-03T01:57:29.615Z,17.43
2018-08-03T01:59:58.005Z,17.20
2018-08-03T02:02:26.405Z,16.97
2018-08-03T02:04:54.860Z,16.77
2018-08-03T02:07:23.211Z,17.83
2018-08-03T02:09:51.983Z,18.13
2018-08-03T02:12:20.477Z,19.00
2018-08-03T02:14:49.021Z,16.93
2018-08-03T02:17:17.378Z,17.47
2018-08-03T02:19:45.805Z,16.17
2018-08-03T02:22:14.189Z,16.73
2018-08-03T02:24:42.605Z,18.80
2018-08-03T02:27:10.940Z,16.30
2018-08-03T02:29:39.413Z,16.60
2018-08-03T02:32:07.813Z,16.83
2018-08-03T02:34:36.189Z,17.03
2018-08-03T02:37:04.643Z,16.90
2018-08-03T02:39:33.008Z,19.03
2018-08-03T02:42:01.396Z,17.63
2018-08-03T02:44:29.851Z,18.73
2018-08-03T02:46:58.245Z,17.23
2018-08-03T02:49:26.816Z,19.40
2018-08-03T02:51:55.159Z,18.37
2018-08-03T02:54:23.601Z,18.27
2018-08-03T02:56:52.038Z,18.03
2018-08-03T02:59:20.405Z,18.13
2018-08-03T03:01:48.789Z,18.20
2018-08-03T03:04:17.261Z,18.63
2018-08-03T03:06:45.636Z,17.77
2018-08-03T03:09:13.996Z,18.97
2018-08-03T03:11:42.448Z,18.73
2018-08-03T03:14:10.869Z,18.27
2018-08-03T03:16:39.206Z,19.20
2018-08-03T03:19:07.618Z,17.23
2018-08-03T03:21:35.971Z,18.70
2018-08-03T03:24:04.347Z,19.27
2018-08-03T03:26:32.840Z,18.30
2018-08-03T03:29:01.297Z,17.83
2018-08-03T03:31:29.733Z,17.73
2018-08-03T03:33:58.132Z,19.80
2018-08-03T03:36:26.533Z,18.47
2018-08-03T03:38:54.900Z,19.03
2018-08-03T03:41:23.276Z,19.13
2018-08-03T03:43:51.650Z,17.03
2018-08-03T03:46:20.101Z,19.13
2018-08-03T03:48:48.563Z,18.90
2018-08-03T03:51:16.996Z,18.10
2018-08-03T03:53:45.378Z,18.50
2018-08-03T03:56:13.827Z,17.43
2018-08-03T03:58:42.593Z,17.57
2018-08-03T04:01:11.033Z,17.50
2018-08-03T04:03:39.433Z,17.67
2018-08-03T04:06:07.836Z,17.17
2018-08-03T04:08:36.377Z,17.97
2018-08-03T04:11:05.032Z,16.80
2018-08-03T04:13:33.517Z,17.50
2018-08-03T04:16:02.041Z,16.73
2018-08-03T04:18:30.406Z,15.60
2018-08-03T04:20:58.851Z,16.57
2018-08-03T04:23:27.257Z,15.80
2018-08-03T04:25:55.754Z,17.30
2018-08-03T04:28:24.118Z,17.47
2018-08-03T04:30:52.513Z,17.17
2018-08-03T04:33:20.922Z,16.53
2018-08-03T04:35:50.250Z,15.87
2018-08-03T04:38:18.691Z,16.17
2018-08-03T04:40:47.071Z,16.80
2018-08-03T04:43:15.571Z,16.50
2018-08-03T04:45:43.955Z,16.03
2018-08-03T04:48:12.385Z,16.73
2018-08-03T04:50:45.250Z,17.20
2018-08-03T04:53:13.761Z,17.33
2018-08-03T04:55:42.149Z,15.90
2018-08-03T04:58:10.506Z,16.47
2018-08-03T05:00:38.994Z,16.17
2018-08-03T05:03:07.379Z,15.43
2018-08-03T05:05:35.880Z,17.90
2018-08-03T05:08:04.284Z,16.57
2018-08-03T05:10:32.627Z,18.13
2018-08-03T05:13:01.011Z,16.83
2018-08-03T05:15:29.357Z,17.47
2018-08-03T05:17:57.768Z,16.70
2018-08-03T05:20:26.177Z,17.70
2018-08-03T05:22:54.620Z,16.90
2018-08-03T05:25:23.074Z,17.67
2018-08-03T05:27:51.507Z,16.53
2018-08-03T05:30:19.981Z,15.80
2018-08-03T05:32:48.387Z,15.33
2018-08-03T05:35:16.783Z,15.53
2018-08-03T05:37:45.217Z,16.57
2018-08-03T05:40:13.627Z,16.43
2018-08-03T05:42:42.018Z,15.67
2018-08-03T05:45:10.638Z,13.93
2018-08-03T05:47:39.166Z,15.37
2018-08-03T05:50:07.919Z,13.83
2018-08-03T05:52:36.472Z,14.00
2018-08-03T05:55:05.144Z,15.43
2018-08-03T05:57:33.543Z,13.47
2018-08-03T06:00:02.224Z,13.47
2018-08-03T06:02:30.587Z,13.57
2018-08-03T06:04:58.954Z,12.03
2018-08-03T06:07:27.397Z,11.77
2018-08-03T06:09:55.783Z,13.20
2018-08-03T06:12:24.183Z,13.00
2018-08-03T06:14:52.621Z,13.27
2018-08-03T06:17:21.041Z,13.00
2018-08-03T06:19:49.527Z,14.03
2018-08-03T06:22:17.922Z,14.10
2018-08-03T06:24:46.267Z,14.13
2018-08-03T06:27:14.646Z,12.37
2018-08-03T06:29:43.043Z,13.70
2018-08-03T06:32:11.436Z,13.33
2018-08-03T06:34:39.895Z,13.83
2018-08-03T06:37:08.520Z,13.53
2018-08-03T06:39:36.958Z,14.13
2018-08-03T06:42:05.384Z,15.10
2018-08-03T06:44:33.743Z,15.13
2018-08-03T06:47:02.221Z,15.07
2018-08-03T06:49:30.774Z,13.90
2018-08-03T06:51:59.185Z,14.97
2018-08-03T06:54:27.579Z,14.20
2018-08-03T06:56:56.108Z,13.73
2018-08-03T06:59:24.533Z,14.03
2018-08-03T07:01:52.921Z,14.37
2018-08-03T07:04:21.327Z,14.63
2018-08-03T07:06:49.694Z,14.40
2018-08-03T07:09:18.072Z,14.50
2018-08-03T07:11:46.403Z,15.13
2018-08-03T07:14:14.713Z,15.10
2018-08-03T07:16:43.091Z,14.60
2018-08-03T07:19:11.475Z,13.90
2018-08-03T07:21:39.800Z,15.43
2018-08-03T07:24:08.475Z,15.07
2018-08-03T07:26:36.871Z,15.83
2018-08-03T07:29:05.313Z,15.77
2018-08-03T07:31:33.817Z,15.30
2018-08-03T07:34:02.233Z,15.73
2018-08-03T07:36:30.629Z,14.53
2018-08-03T07:38:58.982Z,15.67
2018-08-03T07:41:27.457Z,15.53
2018-08-03T07:43:55.893Z,15.23
2018-08-03T07:46:24.371Z,14.03
2018-08-03T07:48:53.233Z,14.70
2018-08-03T07:51:21.691Z,14.60
2018-08-03T07:53:50.046Z,12.73
2018-08-03T07:56:18.486Z,14.00
2018-08-03T07:58:46.872Z,12.87
2018-08-03T08:01:15.260Z,13.10
2018-08-03T08:03:43.667Z,14.83
2018-08-03T08:06:12.047Z,14.80
2018-08-03T08:08:40.385Z,14.77
2018-08-03T08:11:08.837Z,14.07
2018-08-03T08:13:37.368Z,14.67
2018-08-03T08:16:05.996Z,14.90
2018-08-03T08:18:34.356Z,14.47
2018-08-03T08:21:02.807Z,14.30
2018-08-03T08:23:31.247Z,15.47
2018-08-03T08:25:59.719Z,13.40
2018-08-03T08:28:28.154Z,14.60
2018-08-03T08:30:56.523Z,14.67
2018-08-03T08:33:24.956Z,15.90
2018-08-03T08:35:53.386Z,15.40
2018-08-03T08:38:21.794Z,14.23
2018-08-03T08:40:50.215Z,16.03
2018-08-03T08:43:18.591Z,16.13
2018-08-03T08:45:47.103Z,15.63
2018-08-03T08:48:15.460Z,14.17
2018-08-03T08:50:43.798Z,16.10
2018-08-03T08:53:12.233Z,16.07
2018-08-03T08:55:40.686Z,16.10
2018-08-03T08:58:09.087Z,17.20
2018-08-03T09:00:37.569Z,16.17
2018-08-03T09:03:05.979Z,16.97
2018-08-03T09:05:34.348Z,17.47
2018-08-03T09:08:02.741Z,15.83
2018-08-03T09:10:31.157Z,16.50
2018-08-03T09:12:59.598Z,16.23
2018-08-03T09:15:27.984Z,16.30
2018-08-03T09:17:56.443Z,16.43
2018-08-03T09:20:24.863Z,16.90
2018-08-03T09:22:53.318Z,16.00
2018-08-03T09:25:21.717Z,15.87
2018-08-03T09:27:50.212Z,16.50
2018-08-03T09:30:18.598Z,16.50
2018-08-03T09:32:46.967Z,16.77
2018-08-03T09:35:15.387Z,14.40
2018-08-03T09:37:43.833Z,16.37
2018-08-03T09:40:12.267Z,16.20
2018-08-03T09:42:40.658Z,16.63
2018-08-03T09:45:09.132Z,14.20
2018-08-03T09:47:37.644Z,16.80
2018-08-03T09:50:06.095Z,16.00
2018-08-03T09:52:34.563Z,16.77
2018-08-03T09:55:03.020Z,16.47
2018-08-03T09:57:31.439Z,16.13
2018-08-03T09:59:59.865Z,16.10
2018-08-03T10:02:28.228Z,16.60
2018-08-03T10:04:56.638Z,14.53
2018-08-03T10:07:25.124Z,17.77
2018-08-03T10:09:54.023Z,16.00
2018-08-03T10:12:22.399Z,18.43
2018-08-03T10:14:50.861Z,16.70
2018-08-03T10:17:19.240Z,17.80
2018-08-03T10:19:47.659Z,17.47
2018-08-03T10:22:16.183Z,17.67
2018-08-03T10:24:44.550Z,15.73
2018-08-03T10:27:12.903Z,16.77
2018-08-03T10:29:41.361Z,16.07
2018-08-03T10:32:09.839Z,16.30
2018-08-03T10:34:38.253Z,17.90
2018-08-03T10:37:06.663Z,17.27
2018-08-03T10:39:35.205Z,16.37
2018-08-03T10:42:03.567Z,14.97
2018-08-03T10:44:31.907Z,15.77
2018-08-03T10:47:00.285Z,17.57
2018-08-03T10:49:28.588Z,15.47
2018-08-03T10:51:57.420Z,15.17
2018-08-03T10:54:25.785Z,15.80
2018-08-03T10:56:54.216Z,15.97
2018-08-03T10:59:22.656Z,17.83
2018-08-03T11:01:51.133Z,16.67
2018-08-03T11:04:19.535Z,14.67
2018-08-03T11:06:47.965Z,16.03
2018-08-03T11:09:16.343Z,14.53
2018-08-03T11:11:44.740Z,16.07
2018-08-03T11:14:13.217Z,15.57
2018-08-03T11:16:41.555Z,15.73
2018-08-03T11:19:09.995Z,15.73
2018-08-03T11:21:40.276Z,14.27
2018-08-03T11:24:08.733Z,14.87
2018-08-03T11:26:37.118Z,15.37
2018-08-03T11:29:05.531Z,14.90
2018-08-03T11:31:33.933Z,14.97
2018-08-03T11:34:02.789Z,14.90
2018-08-03T11:36:31.239Z,15.60
2018-08-03T11:38:59.663Z,14.97
2018-08-03T11:41:28.139Z,15.90
2018-08-03T11:43:56.544Z,14.90
2018-08-03T11:46:24.928Z,15.30
2018-08-03T11:48:53.771Z,13.63
2018-08-03T11:51:22.154Z,15.20
2018-08-03T11:53:50.669Z,15.70
2018-08-03T11:56:19.040Z,13.53
2018-08-03T11:58:47.471Z,16.90
2018-08-03T12:01:15.921Z,15.40
2018-08-03T12:03:44.439Z,15.30
2018-08-03T12:06:12.850Z,14.73
2018-08-03T12:08:41.356Z,13.47
2018-08-03T12:11:09.741Z,13.77
2018-08-03T12:13:38.133Z,13.40
2018-08-03T12:16:06.994Z,14.40
2018-08-03T12:18:35.470Z,13.37
2018-08-03T12:21:03.825Z,14.90
2018-08-03T12:23:32.278Z,15.27
2018-08-03T12:26:00.655Z,14.83
2018-08-03T12:28:29.144Z,14.40
2018-08-03T12:30:57.550Z,13.70
2018-08-03T12:33:26.061Z,14.53
2018-08-03T12:35:54.485Z,14.20
2018-08-03T12:38:22.893Z,12.90
2018-08-03T12:40:51.371Z,13.00
2018-08-03T12:43:19.783Z,14.17
2018-08-03T12:45:48.164Z,13.87
2018-08-03T12:48:16.520Z,13.90
2018-08-03T12:50:45.049Z,12.67
2018-08-03T12:53:13.387Z,12.53
2018-08-03T12:55:41.824Z,12.30
2018-08-03T12:58:10.241Z,14.93
2018-08-03T13:00:38.625Z,14.00
2018-08-03T13:03:07.029Z,14.43
2018-08-03T13:05:35.427Z,14.53
2018-08-03T13:08:04.021Z,14.40
2018-08-03T13:10:32.160Z,15.50
2018-08-03T13:13:02.300Z,14.80
2018-08-03T13:15:30.654Z,13.13
2018-08-03T13:17:59.080Z,14.40
2018-08-03T13:20:27.527Z,15.10
2018-08-03T13:23:01.415Z,15.07
2018-08-03T13:25:29.828Z,15.50
2018-08-03T13:27:58.279Z,14.50
2018-08-03T13:30:26.655Z,14.63
2018-08-03T13:32:55.165Z,14.63
2018-08-03T13:35:23.680Z,15.20
2018-08-03T13:37:52.327Z,14.93
2018-08-03T13:40:20.812Z,14.63
2018-08-03T13:42:49.410Z,16.07
2018-08-03T13:45:17.822Z,15.30
2018-08-03T13:47:46.207Z,13.60
2018-08-03T13:50:14.633Z,12.23
2018-08-03T13:52:43.075Z,12.50
2018-08-03T13:55:11.430Z,13.00
2018-08-03T13:57:39.927Z,13.03
2018-08-03T14:00:10.201Z,12.43
2018-08-03T14:02:38.661Z,12.37
2018-08-03T14:05:08.109Z,11.57
2018-08-03T14:07:36.210Z,12.90
2018-08-03T14:10:05.181Z,12.93
2018-08-03T14:12:33.357Z,12.30
2018-08-03T14:15:01.877Z,12.00
2018-08-03T14:17:30.243Z,11.83
2018-08-03T14:19:58.752Z,12.83
2018-08-03T14:22:27.178Z,12.70
2018-08-03T14:24:55.540Z,12.17
2018-08-03T14:27:24.012Z,12.80
2018-08-03T14:29:52.511Z,12.57
2018-08-03T14:32:21.055Z,12.80
2018-08-03T14:34:49.464Z,13.33
2018-08-03T14:37:17.947Z,13.57
2018-08-03T14:39:46.388Z,13.00
2018-08-03T14:42:14.847Z,14.13
2018-08-03T14:44:43.227Z,13.37
2018-08-03T14:47:11.621Z,14.10
2018-08-03T14:49:40.027Z,12.47
2018-08-03T14:52:08.382Z,13.37
2018-08-03T14:54:36.839Z,13.57
2018-08-03T14:57:05.243Z,14.00
2018-08-03T14:59:33.671Z,12.80
2018-08-03T15:02:02.017Z,13.90
2018-08-03T15:04:30.521Z,15.10
2018-08-03T15:06:58.972Z,12.70
2018-08-03T15:09:27.405Z,12.13
2018-08-03T15:11:55.799Z,12.50
2018-08-03T15:14:24.140Z,12.20
2018-08-03T15:16:52.600Z,12.53
2018-08-03T15:19:21.013Z,12.93
2018-08-03T15:21:49.462Z,13.07
2018-08-03T15:24:17.869Z,14.40
2018-08-03T15:26:46.363Z,12.60
2018-08-03T15:29:14.683Z,12.93
2018-08-03T15:31:44.030Z,12.97
2018-08-03T15:34:12.452Z,12.83
2018-08-03T15:36:40.879Z,11.70
2018-08-03T15:39:10.303Z,12.20
2018-08-03T15:41:38.773Z,12.80
2018-08-03T15:44:07.157Z,11.27
2018-08-03T15:46:35.668Z,11.50
2018-08-03T15:49:04.028Z,11.37
2018-08-03T15:51:32.433Z,11.10
2018-08-03T15:54:01.167Z,11.00
2018-08-03T15:56:29.580Z,11.00
2018-08-03T15:58:58.051Z,10.50
2018-08-03T16:01:26.466Z,11.00
2018-08-03T16:03:54.818Z,10.60
2018-08-03T16:06:23.326Z,11.67
2018-08-03T16:08:51.704Z,11.60
2018-08-03T16:11:20.191Z,10.97
2018-08-03T16:13:48.569Z,10.93
2018-08-03T16:16:17.028Z,11.70
2018-08-03T16:18:45.434Z,11.80
2018-08-03T16:21:13.851Z,11.47
2018-08-03T16:23:42.271Z,12.43
2018-08-03T16:26:10.694Z,11.93
2018-08-03T16:28:39.142Z,13.30
2018-08-03T16:31:07.505Z,11.60
2018-08-03T16:33:36.011Z,11.93
2018-08-03T16:36:04.434Z,11.77
2018-08-03T16:38:32.783Z,13.57
2018-08-03T16:41:01.185Z,13.33
2018-08-03T16:43:29.658Z,12.37
2018-08-03T16:45:58.089Z,12.30
2018-08-03T16:48:26.458Z,13.50
2018-08-03T16:50:54.920Z,12.30
2018-08-03T16:53:23.318Z,13.00
2018-08-03T16:55:51.811Z,14.07
2018-08-03T16:58:20.249Z,12.97
2018-08-03T17:00:48.781Z,13.43
2018-08-03T17:03:17.181Z,12.10
2018-08-03T17:05:45.671Z,12.77
2018-08-03T17:08:14.085Z,11.80
2018-08-03T17:10:42.543Z,12.83
2018-08-03T17:13:11.025Z,12.67
2018-08-03T17:15:39.389Z,12.67
2018-08-03T17:18:07.845Z,13.60
2018-08-03T17:20:36.247Z,12.13
2018-08-03T17:23:04.639Z,13.03
2018-08-03T17:25:33.055Z,14.30
2018-08-03T17:28:01.483Z,13.40
2018-08-03T17:30:29.831Z,13.50
2018-08-03T17:32:58.220Z,12.33
2018-08-03T17:35:26.583Z,12.10
2018-08-03T17:37:55.056Z,13.33
2018-08-03T17:40:23.542Z,17.70
2018-08-03T17:42:51.963Z,13.23
2018-08-03T17:45:20.455Z,13.03
2018-08-03T17:47:48.967Z,12.33
2018-08-03T17:50:17.396Z,11.47
2018-08-03T17:52:45.765Z,12.27
2018-08-03T17:55:14.218Z,10.83
2018-08-03T17:57:42.728Z,11.00
2018-08-03T18:00:11.325Z,11.67
2018-08-03T18:02:39.937Z,11.87
2018-08-03T18:05:08.439Z,12.27
2018-08-03T18:07:36.896Z,12.10
2018-08-03T18:10:06.117Z,13.00
2018-08-03T18:12:34.654Z,13.30
2018-08-03T18:15:03.073Z,12.10
2018-08-03T18:17:31.633Z,11.87
2018-08-03T18:20:00.081Z,12.93
2018-08-03T18:22:28.415Z,11.57
2018-08-03T18:24:56.782Z,11.53
2018-08-03T18:27:25.188Z,12.77
2018-08-03T18:29:53.599Z,13.87
2018-08-03T18:32:22.070Z,12.43
2018-08-03T18:34:50.497Z,11.60
2018-08-03T18:37:18.865Z,12.13
2018-08-03T18:39:47.317Z,12.80
2018-08-03T18:42:15.689Z,12.20
2018-08-03T18:44:44.173Z,12.93
2018-08-03T18:47:12.524Z,12.37
2018-08-03T18:49:40.940Z,12.83
2018-08-03T18:52:09.413Z,12.83
2018-08-03T18:54:37.778Z,12.67
2018-08-03T18:57:06.356Z,12.77
2018-08-03T18:59:34.740Z,13.50
2018-08-03T19:02:03.170Z,13.67
2018-08-03T19:04:31.623Z,14.00
2018-08-03T19:07:00.027Z,12.77
2018-08-03T19:09:28.427Z,13.40
2018-08-03T19:11:56.864Z,13.53
2018-08-03T19:14:25.301Z,16.07
2018-08-03T19:16:53.879Z,12.97
2018-08-03T19:19:22.235Z,13.77
2018-08-03T19:21:50.724Z,13.10
2018-08-03T19:24:19.115Z,12.67
2018-08-03T19:26:47.554Z,13.43
2018-08-03T19:29:15.974Z,14.07
2018-08-03T19:31:44.446Z,13.00
2018-08-03T19:34:12.942Z,13.93
2018-08-03T19:36:41.353Z,14.00
2018-08-03T19:39:11.272Z,13.80
2018-08-03T19:41:39.861Z,13.50
2018-08-03T19:44:08.322Z,13.33
2018-08-03T19:46:37.087Z,13.10
2018-08-03T19:49:05.525Z,13.10
2018-08-03T19:51:33.934Z,14.20
2018-08-03T19:54:02.339Z,14.43
2018-08-03T19:56:30.659Z,15.80
2018-08-03T19:58:59.227Z,13.97
2018-08-03T20:01:27.656Z,14.17
2018-08-03T20:03:56.011Z,13.13
2018-08-03T20:06:24.424Z,13.50
2018-08-03T20:08:52.843Z,15.13
2018-08-03T20:11:21.249Z,14.57
2018-08-03T20:13:49.686Z,14.50
2018-08-03T20:16:18.522Z,14.70
2018-08-03T20:18:46.899Z,14.43
2018-08-03T20:21:15.421Z,13.57
2018-08-03T20:23:43.886Z,15.03
2018-08-03T20:26:12.232Z,15.33
2018-08-03T20:28:40.596Z,16.50
2018-08-03T20:31:08.965Z,15.63
2018-08-03T20:33:37.309Z,14.20
2018-08-03T20:36:05.665Z,14.00
2018-08-03T20:38:34.147Z,15.30
2018-08-03T20:41:02.466Z,13.90
2018-08-03T20:43:30.908Z,15.43
2018-08-03T20:45:59.325Z,14.90
2018-08-03T20:48:27.767Z,14.67
2018-08-03T20:50:56.221Z,15.30
2018-08-03T20:53:24.629Z,15.47
2018-08-03T20:55:52.996Z,14.20
2018-08-03T20:58:21.469Z,15.67
2018-08-03T21:00:49.831Z,15.30
2018-08-03T21:03:18.232Z,15.57
2018-08-03T21:05:46.628Z,15.53
2018-08-03T21:08:15.013Z,15.83
2018-08-03T21:10:43.414Z,15.97
2018-08-03T21:13:11.762Z,15.67
2018-08-03T21:15:40.138Z,15.80
2018-08-03T21:18:08.500Z,15.73
2018-08-03T21:20:36.902Z,18.07
2018-08-03T21:23:05.438Z,16.43
2018-08-03T21:25:33.818Z,17.80
2018-08-03T21:28:02.242Z,16.97
2018-08-03T21:30:30.620Z,15.53
2018-08-03T21:32:58.969Z,16.40
2018-08-03T21:35:27.320Z,16.23
2018-08-03T21:37:55.744Z,17.27
2018-08-03T21:40:24.148Z,16.90
2018-08-03T21:42:52.562Z,15.90
2018-08-03T21:45:20.929Z,17.30
2018-08-03T21:47:49.530Z,16.50
2018-08-03T21:50:18.005Z,17.73
2018-08-03T21:52:46.421Z,15.87
2018-08-03T21:55:14.745Z,17.20
2018-08-03T21:57:43.188Z,16.00
2018-08-03T22:00:17.044Z,16.83
2018-08-03T22:02:45.551Z,17.30
2018-08-03T22:05:13.901Z,16.13
2018-08-03T22:07:42.279Z,16.73
2018-08-03T22:10:10.675Z,17.20
2018-08-03T22:12:39.095Z,17.40
2018-08-03T22:15:07.188Z,18.47
2018-08-03T22:17:35.668Z,17.57
2018-08-03T22:20:04.789Z,17.50
2018-08-03T22:22:33.202Z,17.13
2018-08-03T22:25:01.598Z,17.20
2018-08-03T22:27:30.020Z,18.17
2018-08-03T22:29:58.433Z,17.27
2018-08-03T22:32:27.011Z,18.43
2018-08-03T22:34:55.338Z,18.30
2018-08-03T22:37:23.708Z,16.03
2018-08-03T22:39:52.040Z,18.47
2018-08-03T22:42:20.474Z,17.70
2018-08-03T22:44:48.821Z,18.87
2018-08-03T22:47:17.195Z,18.27
2018-08-03T22:49:45.860Z,19.47
2018-08-03T22:52:14.257Z,19.27
2018-08-03T22:54:42.615Z,18.70
2018-08-03T22:57:10.920Z,19.67
2018-08-03T22:59:39.332Z,19.20
2018-08-03T23:02:08.738Z,18.97
2018-08-03T23:04:38.205Z,18.20
2018-08-03T23:07:06.664Z,18.30
2018-08-03T23:09:35.112Z,20.70
2018-08-03T23:12:03.583Z,19.50
2018-08-03T23:14:32.039Z,19.23
2018-08-03T23:17:00.463Z,19.80
2018-08-03T23:19:28.884Z,19.80
2018-08-03T23:21:57.264Z,19.83
2018-08-03T23:24:25.713Z,20.23
2018-08-03T23:26:54.099Z,19.67
2018-08-03T23:29:22.504Z,21.50
2018-08-03T23:31:50.941Z,21.33
2018-08-03T23:34:19.339Z,21.40
2018-08-03T23:36:47.801Z,20.67
2018-08-03T23:39:16.197Z,21.03
2018-08-03T23:41:45.381Z,20.53
2018-08-03T23:44:14.028Z,21.30
2018-08-03T23:46:42.465Z,20.23
2018-08-03T23:49:10.862Z,21.30
2018-08-03T23:51:39.241Z,20.77
2018-08-03T23:54:07.642Z,21.17
2018-08-03T23:56:36.111Z,23.10
2018-08-03T23:59:04.655Z,21.93
